Time;durP1;ratioP1;P1;durP2;ratioP2;P2;SDS_P1;SDS_P2;PMS_P1;PMS_P2;Temp;Humidity;BMP_temperature;BMP_pressure;BME280_temperature;BME280_humidity;BME280_pressure;Samples;Min_cycle;Max_cycle;Signal;HPM_P1;HPM_P2
2021/11/05 00:00:55;;;;;;;14.07;7.43;;;5.70;99.90;;;;;;5035673;28;20478;-86
2021/11/05 00:03:22;;;;;;;24.17;8.90;;;5.70;99.90;;;;;;5035461;28;20053;-86
2021/11/05 00:05:48;;;;;;;14.05;8.32;;;5.70;99.90;;;;;;5017964;28;20084;-86
2021/11/05 00:08:15;;;;;;;17.42;9.13;;;5.80;99.90;;;;;;5017840;28;20132;-85
2021/11/05 00:10:44;;;;;;;13.77;8.43;;;5.70;99.90;;;;;;5034893;28;20062;-86
2021/11/05 00:13:11;;;;;;;14.55;8.82;;;5.80;99.90;;;;;;5034998;28;20144;-86
2021/11/05 00:15:38;;;;;;;14.02;8.68;;;5.80;99.90;;;;;;5035294;28;20110;-86
2021/11/05 00:18:05;;;;;;;11.00;7.90;;;5.90;99.90;;;;;;5017479;28;20056;-86
2021/11/05 00:20:33;;;;;;;14.93;8.48;;;5.80;99.90;;;;;;5017650;28;20049;-86
2021/11/05 00:23:00;;;;;;;13.45;8.38;;;5.70;99.90;;;;;;5035007;28;20047;-86
2021/11/05 00:25:27;;;;;;;11.57;8.20;;;5.70;99.90;;;;;;5017737;28;20056;-85
2021/11/05 00:27:54;;;;;;;13.63;8.48;;;5.80;99.90;;;;;;5034939;28;20054;-86
2021/11/05 00:30:21;;;;;;;14.93;8.65;;;5.80;99.90;;;;;;5017400;28;20132;-86
2021/11/05 00:32:48;;;;;;;11.50;8.13;;;5.80;99.90;;;;;;5035022;28;20055;-86
2021/11/05 00:35:15;;;;;;;12.02;8.05;;;5.90;99.90;;;;;;5017294;28;20042;-86
2021/11/05 00:37:43;;;;;;;14.63;8.50;;;5.90;99.90;;;;;;5017479;28;20124;-86
2021/11/05 00:40:12;;;;;;;17.65;8.68;;;5.90;99.90;;;;;;5017154;28;20413;-86
2021/11/05 00:42:39;;;;;;;13.90;8.57;;;5.90;99.90;;;;;;5034612;28;20814;-86
2021/11/05 00:45:07;;;;;;;13.13;8.38;;;5.90;99.90;;;;;;5034732;28;20049;-86
2021/11/05 00:47:34;;;;;;;13.90;8.80;;;5.90;99.90;;;;;;5017180;28;20052;-86
2021/11/05 00:50:00;;;;;;;13.68;8.68;;;5.90;99.90;;;;;;5017051;28;20325;-86
2021/11/05 00:52:27;;;;;;;16.88;8.15;;;5.90;99.90;;;;;;5034416;28;20111;-86
2021/11/05 00:54:54;;;;;;;12.30;8.23;;;6.00;99.90;;;;;;5016932;28;20173;-86
2021/11/05 00:57:21;;;;;;;10.15;7.60;;;6.00;99.90;;;;;;5043778;28;20136;-86
2021/11/05 00:59:47;;;;;;;11.63;7.93;;;6.00;99.90;;;;;;5043208;28;20049;-86
2021/11/05 01:02:15;;;;;;;10.32;7.97;;;6.00;99.90;;;;;;5017089;28;20053;-85
2021/11/05 01:04:42;;;;;;;10.50;7.03;;;6.10;99.90;;;;;;5016803;28;20045;-86
2021/11/05 01:07:08;;;;;;;15.30;7.47;;;6.00;99.90;;;;;;5034206;28;20449;-86
2021/11/05 01:09:35;;;;;;;12.73;7.78;;;6.00;99.90;;;;;;5033842;28;20434;-87
2021/11/05 01:12:02;;;;;;;16.13;7.90;;;6.00;99.90;;;;;;5016713;28;20049;-86
2021/11/05 01:14:29;;;;;;;13.38;8.10;;;6.10;99.90;;;;;;5016760;28;20080;-86
2021/11/05 01:16:58;;;;;;;12.52;8.00;;;6.10;99.90;;;;;;5016892;28;20048;-87
2021/11/05 01:19:26;;;;;;;13.45;7.93;;;6.10;99.90;;;;;;5033994;28;20128;-86
2021/11/05 01:21:53;;;;;;;13.88;7.72;;;6.00;99.90;;;;;;5016437;28;20045;-86
2021/11/05 01:24:20;;;;;;;10.30;7.72;;;6.00;99.90;;;;;;5033942;28;20144;-86
2021/11/05 01:26:47;;;;;;;9.88;6.78;;;6.00;99.90;;;;;;5016771;28;20041;-86
2021/11/05 01:29:13;;;;;;;10.05;7.07;;;6.10;99.90;;;;;;5016750;28;20053;-86
2021/11/05 01:31:40;;;;;;;13.13;7.20;;;6.00;99.90;;;;;;5033989;28;20061;-86
2021/11/05 01:34:07;;;;;;;9.23;6.68;;;6.00;99.90;;;;;;5033688;28;20045;-86
2021/11/05 01:36:34;;;;;;;8.93;6.63;;;6.00;99.90;;;;;;5016105;28;20556;-86
2021/11/05 01:39:01;;;;;;;11.85;8.00;;;6.00;99.90;;;;;;5034277;28;20402;-86
2021/11/05 01:41:28;;;;;;;10.90;7.65;;;6.00;99.90;;;;;;5016721;28;20054;-86
2021/11/05 01:43:55;;;;;;;9.88;7.88;;;6.10;99.90;;;;;;5033953;28;20417;-86
2021/11/05 01:46:22;;;;;;;9.15;7.35;;;6.10;99.90;;;;;;5033324;28;20053;-86
2021/11/05 01:48:49;;;;;;;9.48;6.65;;;6.10;99.90;;;;;;5033626;28;20073;-86
2021/11/05 01:51:16;;;;;;;8.65;7.57;;;6.10;99.90;;;;;;5016044;28;20053;-86
2021/11/05 01:53:45;;;;;;;7.22;6.53;;;6.00;99.90;;;;;;5016220;28;20362;-86
2021/11/05 01:56:12;;;;;;;6.80;6.20;;;6.10;99.90;;;;;;5016179;28;20053;-85
2021/11/05 01:58:39;;;;;;;8.77;6.65;;;6.10;99.90;;;;;;5016671;28;20056;-86
2021/11/05 02:01:06;;;;;;;7.50;5.97;;;6.10;99.90;;;;;;5033233;28;20486;-86
2021/11/05 02:03:33;;;;;;;5.55;5.10;;;6.20;99.90;;;;;;5015998;28;20055;-87
2021/11/05 02:06:01;;;;;;;5.15;4.65;;;6.20;99.90;;;;;;5015799;28;20383;-86
2021/11/05 02:08:28;;;;;;;5.80;5.25;;;6.20;99.90;;;;;;5015848;28;20056;-86
2021/11/05 02:10:56;;;;;;;4.43;4.13;;;6.30;99.90;;;;;;5033247;28;20140;-87
2021/11/05 02:13:27;;;;;;;8.00;4.72;;;6.30;99.90;;;;;;5016657;28;20057;-87
2021/11/05 02:15:56;;;;;;;4.68;4.28;;;6.40;99.90;;;;;;5033217;28;20494;-86
2021/11/05 02:18:24;;;;;;;3.67;3.47;;;6.40;99.90;;;;;;5034246;28;20053;-86
2021/11/05 02:20:55;;;;;;;4.22;3.90;;;6.50;99.90;;;;;;5015148;28;20045;-87
2021/11/05 02:23:24;;;;;;;3.80;3.47;;;6.50;99.90;;;;;;5015978;28;20059;-88
2021/11/05 02:25:52;;;;;;;3.70;3.40;;;6.50;99.90;;;;;;5033105;28;20083;-87
2021/11/05 02:28:18;;;;;;;3.90;3.60;;;6.50;99.90;;;;;;5032926;28;20053;-89
2021/11/05 02:30:45;;;;;;;3.35;3.05;;;6.50;99.90;;;;;;5015827;28;20414;-88
2021/11/05 02:33:12;;;;;;;3.28;2.97;;;6.50;99.90;;;;;;5033013;28;20057;-88
2021/11/05 02:35:40;;;;;;;3.45;3.25;;;6.50;99.90;;;;;;5033114;28;20136;-90
2021/11/05 02:38:07;;;;;;;3.20;3.00;;;6.60;99.90;;;;;;5033158;28;20049;-88
2021/11/05 02:40:34;;;;;;;3.58;3.35;;;6.60;99.90;;;;;;5033230;28;20045;-89
2021/11/05 02:43:01;;;;;;;4.15;3.78;;;6.50;99.90;;;;;;5033163;28;20049;-89
2021/11/05 02:45:28;;;;;;;3.85;3.55;;;6.50;99.90;;;;;;5015733;28;20514;-89
2021/11/05 02:47:55;;;;;;;5.05;3.90;;;6.50;99.90;;;;;;5015832;28;20056;-89
2021/11/05 02:50:22;;;;;;;3.88;3.55;;;6.40;99.90;;;;;;5015754;28;20049;-89
2021/11/05 02:52:49;;;;;;;4.25;3.63;;;6.40;99.90;;;;;;5016004;28;20458;-89
2021/11/05 02:55:17;;;;;;;3.65;3.42;;;6.30;99.90;;;;;;5032989;28;20102;-89
2021/11/05 02:57:44;;;;;;;4.78;3.92;;;6.40;99.90;;;;;;5016088;28;20045;-89
2021/11/05 03:00:13;;;;;;;4.32;4.03;;;6.40;99.90;;;;;;5015571;28;20049;-88
2021/11/05 03:02:40;;;;;;;3.83;3.35;;;6.40;99.90;;;;;;5015597;28;20129;-88
2021/11/05 03:05:09;;;;;;;4.30;3.92;;;6.40;99.90;;;;;;5015744;28;20489;-89
2021/11/05 03:07:36;;;;;;;3.97;3.67;;;6.40;99.90;;;;;;5015910;28;20103;-88
2021/11/05 03:10:04;;;;;;;4.45;4.05;;;6.40;99.90;;;;;;5015793;28;20060;-88
2021/11/05 03:12:31;;;;;;;4.85;3.90;;;6.50;99.90;;;;;;5032817;28;20045;-88
2021/11/05 03:14:58;;;;;;;4.00;3.70;;;6.40;99.90;;;;;;5015540;28;20049;-88
2021/11/05 03:17:25;;;;;;;3.97;3.58;;;6.50;99.90;;;;;;5015663;28;20500;-88
2021/11/05 03:19:53;;;;;;;4.90;4.00;;;6.40;99.90;;;;;;5015488;28;20049;-88
2021/11/05 03:22:20;;;;;;;4.47;4.07;;;6.40;99.90;;;;;;5015512;28;20041;-88
2021/11/05 03:24:47;;;;;;;3.88;3.58;;;6.30;99.90;;;;;;5032769;28;20076;-87
2021/11/05 03:27:13;;;;;;;4.95;3.88;;;6.40;99.90;;;;;;5015555;28;20132;-87
2021/11/05 03:29:40;;;;;;;4.57;4.07;;;6.30;99.90;;;;;;5015859;28;20049;-87
2021/11/05 03:32:08;;;;;;;4.95;4.53;;;6.30;99.90;;;;;;5029970;28;20109;-86
2021/11/05 03:34:35;;;;;;;5.60;5.05;;;6.30;99.90;;;;;;5042894;28;20132;-86
2021/11/05 03:37:03;;;;;;;6.43;5.82;;;6.30;99.90;;;;;;5018550;28;20533;-86
2021/11/05 03:39:30;;;;;;;7.03;6.32;;;6.30;99.90;;;;;;5018725;28;20141;-85
2021/11/05 03:41:57;;;;;;;5.38;4.97;;;6.30;99.90;;;;;;5018090;28;20466;-85
2021/11/05 03:44:24;;;;;;;5.07;4.63;;;6.30;99.90;;;;;;5018053;28;20494;-85
2021/11/05 03:46:51;;;;;;;5.45;4.43;;;6.30;99.90;;;;;;5018318;28;20050;-85
2021/11/05 03:49:18;;;;;;;4.85;4.25;;;6.30;99.90;;;;;;5018018;28;20045;-85
2021/11/05 03:51:45;;;;;;;4.85;4.40;;;6.20;99.90;;;;;;5017979;28;20125;-84
2021/11/05 03:54:12;;;;;;;4.57;4.18;;;6.30;99.90;;;;;;5035318;28;20049;-85
2021/11/05 03:56:38;;;;;;;4.95;4.50;;;6.30;99.90;;;;;;5017452;28;20508;-84
2021/11/05 03:59:09;;;;;;;5.13;4.63;;;6.30;99.90;;;;;;5018137;28;20080;-84
2021/11/05 04:01:36;;;;;;;5.85;4.95;;;6.30;99.90;;;;;;5035555;28;20084;-84
2021/11/05 04:04:03;;;;;;;7.93;4.68;;;6.30;99.90;;;;;;5034895;28;20083;-84
2021/11/05 04:06:30;;;;;;;7.60;4.80;;;6.30;99.90;;;;;;5035261;28;20045;-84
2021/11/05 04:08:56;;;;;;;4.85;4.45;;;6.30;99.90;;;;;;5035100;28;20053;-84
2021/11/05 04:11:23;;;;;;;5.50;5.00;;;6.30;99.90;;;;;;5017333;28;20584;-84
2021/11/05 04:13:50;;;;;;;5.63;4.68;;;6.30;99.90;;;;;;5035343;28;20049;-83
2021/11/05 04:16:17;;;;;;;5.07;4.60;;;6.30;99.90;;;;;;5034647;28;20626;-84
2021/11/05 04:18:44;;;;;;;4.97;4.57;;;6.30;99.90;;;;;;5017354;28;20483;-83
2021/11/05 04:21:11;;;;;;;5.60;5.07;;;6.30;99.90;;;;;;5034869;28;20045;-84
2021/11/05 04:23:38;;;;;;;6.03;5.32;;;6.30;99.90;;;;;;5034916;28;20057;-84
2021/11/05 04:26:05;;;;;;;7.10;5.30;;;6.30;99.90;;;;;;5016877;28;20045;-84
2021/11/05 04:28:33;;;;;;;6.05;5.45;;;6.20;99.90;;;;;;5017222;28;20058;-83
2021/11/05 04:31:01;;;;;;;7.75;5.32;;;6.20;99.90;;;;;;5034529;28;20128;-83
2021/11/05 04:33:31;;;;;;;5.43;4.93;;;6.30;99.90;;;;;;5016946;28;20058;-83
2021/11/05 04:35:59;;;;;;;7.97;6.68;;;6.30;99.90;;;;;;5016732;28;20407;-83
2021/11/05 04:38:26;;;;;;;5.95;5.35;;;6.30;99.90;;;;;;5016636;28;20516;-83
2021/11/05 04:40:54;;;;;;;6.60;5.88;;;6.30;99.90;;;;;;5017250;28;20093;-83
2021/11/05 04:43:21;;;;;;;10.68;6.78;;;6.30;99.90;;;;;;5016247;28;20077;-83
2021/11/05 04:45:48;;;;;;;7.03;6.10;;;6.30;99.90;;;;;;5016751;28;20041;-83
2021/11/05 04:48:15;;;;;;;7.10;5.78;;;6.30;99.90;;;;;;5022232;28;20051;-84
2021/11/05 04:50:42;;;;;;;7.72;6.05;;;6.30;99.90;;;;;;5043492;28;20144;-83
2021/11/05 04:53:10;;;;;;;8.88;5.40;;;6.30;99.90;;;;;;5016186;28;20147;-84
2021/11/05 04:55:37;;;;;;;6.05;5.43;;;6.30;99.90;;;;;;5016504;28;20060;-83
2021/11/05 04:58:04;;;;;;;6.40;5.20;;;6.30;99.90;;;;;;5016311;28;20068;-84
2021/11/05 05:00:31;;;;;;;5.82;4.90;;;6.30;99.90;;;;;;5016589;28;20049;-83
2021/11/05 05:02:58;;;;;;;5.85;5.25;;;6.30;99.90;;;;;;5034027;28;20049;-83
2021/11/05 05:05:27;;;;;;;9.68;6.97;;;6.20;99.90;;;;;;5033815;28;20055;-83
2021/11/05 05:07:56;;;;;;;10.23;7.78;;;6.20;99.90;;;;;;5033972;28;20081;-83
2021/11/05 05:10:25;;;;;;;8.95;7.07;;;6.20;99.90;;;;;;5016069;28;20057;-83
2021/11/05 05:12:52;;;;;;;9.35;7.30;;;6.20;99.90;;;;;;5016186;28;20140;-84
2021/11/05 05:15:19;;;;;;;7.78;6.65;;;6.20;99.90;;;;;;5016074;28;20045;-83
2021/11/05 05:17:46;;;;;;;8.77;6.60;;;6.20;99.90;;;;;;5033695;28;20049;-84
2021/11/05 05:20:15;;;;;;;7.18;6.47;;;6.20;99.90;;;;;;5015842;28;20058;-83
2021/11/05 05:22:42;;;;;;;12.60;7.65;;;6.20;99.90;;;;;;5016553;28;20049;-83
2021/11/05 05:25:11;;;;;;;9.07;6.78;;;6.10;99.90;;;;;;5015823;28;20064;-83
2021/11/05 05:27:40;;;;;;;9.85;7.63;;;6.10;99.90;;;;;;5016099;28;20049;-83
2021/11/05 05:30:08;;;;;;;9.98;7.10;;;6.10;99.90;;;;;;5033351;28;20050;-84
2021/11/05 05:32:35;;;;;;;13.27;8.82;;;6.10;99.90;;;;;;5033383;28;20132;-84
2021/11/05 05:35:02;;;;;;;16.63;10.10;;;6.00;99.90;;;;;;5015766;28;20049;-83
2021/11/05 05:37:29;;;;;;;16.50;10.20;;;5.90;99.90;;;;;;5015771;28;20059;-83
2021/11/05 05:39:56;;;;;;;13.00;9.45;;;5.90;99.90;;;;;;5033254;28;20049;-83
2021/11/05 05:42:23;;;;;;;11.45;9.30;;;6.00;99.90;;;;;;5033360;28;20088;-84
2021/11/05 05:44:50;;;;;;;13.05;9.43;;;6.00;99.90;;;;;;5015773;28;20045;-83
2021/11/05 05:47:17;;;;;;;11.98;9.02;;;6.10;99.90;;;;;;5032952;28;20041;-83
2021/11/05 05:49:44;;;;;;;12.80;8.70;;;6.10;99.90;;;;;;5015684;28;20144;-83
2021/11/05 05:52:10;;;;;;;13.88;11.25;;;6.20;99.90;;;;;;5015439;28;20045;-84
2021/11/05 05:54:37;;;;;;;13.48;11.38;;;6.20;99.90;;;;;;5015461;28;20054;-83
2021/11/05 05:57:04;;;;;;;12.70;9.68;;;6.30;99.90;;;;;;5015375;28;20410;-83
2021/11/05 05:59:31;;;;;;;10.60;9.10;;;6.30;99.90;;;;;;5018277;28;20063;-83
2021/11/05 06:01:58;;;;;;;11.07;8.95;;;6.30;99.90;;;;;;5017919;28;20046;-83
2021/11/05 06:04:26;;;;;;;9.57;8.40;;;6.30;99.90;;;;;;5018133;28;20049;-82
2021/11/05 06:06:54;;;;;;;9.95;7.40;;;6.30;99.90;;;;;;5027488;28;20132;-83
2021/11/05 06:09:21;;;;;;;6.85;6.25;;;6.30;99.90;;;;;;5015289;28;20469;-83
2021/11/05 06:11:47;;;;;;;6.80;5.90;;;6.30;99.90;;;;;;5033021;28;20049;-83
2021/11/05 06:14:14;;;;;;;6.53;5.88;;;6.30;99.90;;;;;;5032406;28;20083;-84
2021/11/05 06:16:42;;;;;;;7.35;5.80;;;6.30;99.90;;;;;;5033229;28;20459;-84
2021/11/05 06:19:09;;;;;;;6.28;4.65;;;6.30;99.90;;;;;;5016993;28;20056;-84
2021/11/05 06:21:36;;;;;;;5.70;5.20;;;6.30;99.90;;;;;;5033459;28;20550;-84
2021/11/05 06:24:05;;;;;;;6.15;5.38;;;6.30;99.90;;;;;;5034402;28;20481;-83
2021/11/05 06:26:32;;;;;;;5.43;4.93;;;6.20;99.90;;;;;;4999342;28;20050;-84
2021/11/05 06:29:02;;;;;;;5.80;4.57;;;6.30;99.90;;;;;;5015159;28;20045;-84
2021/11/05 06:31:33;;;;;;;4.63;4.22;;;6.30;99.90;;;;;;5015282;28;20042;-84
2021/11/05 06:34:01;;;;;;;6.13;5.32;;;6.30;99.90;;;;;;5015206;28;20055;-83
2021/11/05 06:36:27;;;;;;;8.30;6.10;;;6.30;99.90;;;;;;5032469;28;20049;-84
2021/11/05 06:38:56;;;;;;;6.25;5.65;;;6.30;99.90;;;;;;5032511;28;20049;-83
2021/11/05 06:41:23;;;;;;;9.55;7.20;;;6.40;99.90;;;;;;5014809;28;20104;-84
2021/11/05 06:43:50;;;;;;;8.55;7.55;;;6.40;99.90;;;;;;5032499;28;20057;-84
2021/11/05 06:46:17;;;;;;;19.42;12.23;;;6.30;99.90;;;;;;5032106;28;20415;-84
2021/11/05 06:48:44;;;;;;;9.27;8.27;;;6.20;99.90;;;;;;5032669;28;20485;-83
2021/11/05 06:51:10;;;;;;;12.05;8.73;;;6.20;99.90;;;;;;5032356;28;20482;-83
2021/11/05 06:53:37;;;;;;;12.00;9.35;;;6.30;99.90;;;;;;5014641;28;20053;-84
2021/11/05 06:56:05;;;;;;;11.45;8.25;;;6.30;99.90;;;;;;5014562;28;20096;-83
2021/11/05 06:58:35;;;;;;;10.80;8.45;;;6.40;99.90;;;;;;5014936;28;20077;-83
2021/11/05 07:01:06;;;;;;;12.65;8.93;;;6.30;99.90;;;;;;5014853;28;20133;-83
2021/11/05 07:03:34;;;;;;;11.65;9.25;;;6.40;99.90;;;;;;5015019;28;20076;-83
2021/11/05 07:06:00;;;;;;;11.27;9.13;;;6.40;99.90;;;;;;5031377;28;20793;-83
2021/11/05 07:08:28;;;;;;;8.77;7.90;;;6.40;99.90;;;;;;5017568;28;20056;-84
2021/11/05 07:10:55;;;;;;;9.23;7.72;;;6.40;99.90;;;;;;5018403;28;20081;-83
2021/11/05 07:13:22;;;;;;;9.77;7.57;;;6.50;99.90;;;;;;5035916;28;20208;-84
2021/11/05 07:15:49;;;;;;;9.95;7.75;;;6.50;99.90;;;;;;5018489;28;20092;-83
2021/11/05 07:18:16;;;;;;;10.55;7.78;;;6.50;99.90;;;;;;5035751;28;20052;-83
2021/11/05 07:20:44;;;;;;;11.23;8.65;;;6.50;99.90;;;;;;5037638;28;20078;-84
2021/11/05 07:23:12;;;;;;;9.45;8.13;;;6.60;99.90;;;;;;5029306;28;20414;-84
2021/11/05 07:25:41;;;;;;;12.75;9.05;;;6.40;99.90;;;;;;5018494;28;20486;-83
2021/11/05 07:28:08;;;;;;;12.55;8.32;;;6.50;99.90;;;;;;5017707;28;20136;-84
2021/11/05 07:30:36;;;;;;;11.25;8.77;;;6.60;99.90;;;;;;5019698;28;20049;-83
2021/11/05 07:33:03;;;;;;;12.77;9.55;;;6.60;99.90;;;;;;5018567;28;20056;-84
2021/11/05 07:35:30;;;;;;;12.68;9.43;;;6.70;99.90;;;;;;5035918;28;20049;-85
2021/11/05 07:37:57;;;;;;;8.45;6.88;;;6.80;99.90;;;;;;5018335;28;20065;-83
2021/11/05 07:40:24;;;;;;;6.88;6.18;;;6.90;99.90;;;;;;5036694;28;20056;-84
2021/11/05 07:42:51;;;;;;;5.97;5.07;;;6.90;99.90;;;;;;5017928;28;20049;-85
2021/11/05 07:45:18;;;;;;;4.93;4.53;;;6.90;99.90;;;;;;5017520;28;20045;-84
2021/11/05 07:47:47;;;;;;;4.85;4.35;;;6.90;99.90;;;;;;5017854;28;20474;-84
2021/11/05 07:50:16;;;;;;;4.25;3.95;;;7.00;99.90;;;;;;5017277;28;20053;-83
2021/11/05 07:52:43;;;;;;;5.57;4.25;;;7.00;99.90;;;;;;5034693;28;20128;-84
2021/11/05 07:55:10;;;;;;;4.00;3.70;;;7.00;99.90;;;;;;5017203;28;20435;-84
2021/11/05 07:57:37;;;;;;;4.22;3.92;;;7.00;99.90;;;;;;5034853;28;20081;-84
2021/11/05 08:00:10;;;;;;;4.70;4.38;;;7.00;99.90;;;;;;5017509;28;20079;-84
2021/11/05 08:02:36;;;;;;;8.32;6.78;;;7.00;99.90;;;;;;5017133;28;20128;-84
2021/11/05 08:05:03;;;;;;;18.23;13.05;;;6.90;99.90;;;;;;5017512;28;20057;-85
2021/11/05 08:07:30;;;;;;;14.48;10.07;;;6.80;99.90;;;;;;5034285;28;20064;-85
2021/11/05 08:09:57;;;;;;;14.45;10.75;;;6.70;99.90;;;;;;5034661;28;20060;-83
2021/11/05 08:12:24;;;;;;;10.52;8.07;;;6.80;99.90;;;;;;5017121;28;20483;-84
2021/11/05 08:14:51;;;;;;;7.32;6.45;;;6.80;99.90;;;;;;5017212;28;20049;-84
2021/11/05 08:17:17;;;;;;;13.23;7.47;;;6.80;99.90;;;;;;5034027;28;20128;-84
2021/11/05 08:19:44;;;;;;;7.05;6.38;;;6.90;99.90;;;;;;5033555;28;20203;-85
2021/11/05 08:22:11;;;;;;;8.00;7.15;;;6.80;99.90;;;;;;5016832;28;20071;-84
2021/11/05 08:24:37;;;;;;;11.82;7.25;;;7.00;99.90;;;;;;5016996;28;20058;-84
2021/11/05 08:27:04;;;;;;;8.63;6.57;;;7.10;99.90;;;;;;5016488;28;20052;-84
2021/11/05 08:29:31;;;;;;;7.70;6.28;;;7.20;99.90;;;;;;5016567;28;20413;-84
2021/11/05 08:31:58;;;;;;;7.47;6.38;;;7.30;99.90;;;;;;5034024;28;20063;-84
2021/11/05 08:34:25;;;;;;;5.68;4.90;;;7.30;99.90;;;;;;5033947;28;20490;-84
2021/11/05 08:36:52;;;;;;;7.18;5.70;;;7.30;99.90;;;;;;5033376;28;20136;-84
2021/11/05 08:39:18;;;;;;;6.90;5.50;;;7.30;99.90;;;;;;5047217;28;20049;-84
2021/11/05 08:41:45;;;;;;;6.88;5.72;;;7.40;99.90;;;;;;5016816;28;20128;-84
2021/11/05 08:44:12;;;;;;;8.95;7.20;;;7.50;99.90;;;;;;5016354;28;20056;-84
2021/11/05 08:46:39;;;;;;;9.75;8.75;;;7.40;99.90;;;;;;5016387;28;20053;-84
2021/11/05 08:49:10;;;;;;;5.65;5.15;;;7.50;99.90;;;;;;5033949;28;20041;-84
2021/11/05 08:51:43;;;;;;;5.75;5.05;;;7.50;99.90;;;;;;5016730;28;20160;-84
2021/11/05 08:54:10;;;;;;;6.50;5.90;;;7.50;99.90;;;;;;5033772;28;20053;-84
2021/11/05 08:56:38;;;;;;;11.75;9.05;;;7.60;99.90;;;;;;5016048;28;20045;-84
2021/11/05 08:59:13;;;;;;;7.60;6.80;;;7.50;99.90;;;;;;5016695;28;20057;-85
2021/11/05 09:01:40;;;;;;;3.70;3.40;;;7.40;99.90;;;;;;5016194;28;20095;-84
2021/11/05 09:04:09;;;;;;;8.52;4.50;;;7.40;99.90;;;;;;5033313;28;20057;-84
2021/11/05 09:06:35;;;;;;;3.75;3.45;;;7.30;99.90;;;;;;5015966;28;20049;-84
2021/11/05 09:09:03;;;;;;;3.92;3.53;;;7.40;99.90;;;;;;5015642;28;20058;-84
2021/11/05 09:11:31;;;;;;;3.70;3.30;;;7.50;99.90;;;;;;5015701;28;20144;-83
2021/11/05 09:13:58;;;;;;;3.80;3.50;;;7.40;99.90;;;;;;5033225;28;20592;-84
2021/11/05 09:16:28;;;;;;;3.70;3.40;;;7.50;99.90;;;;;;5015619;28;20047;-84
2021/11/05 09:18:56;;;;;;;5.30;3.28;;;7.50;99.90;;;;;;5033410;28;20049;-84
2021/11/05 09:21:24;;;;;;;3.88;3.05;;;7.50;99.90;;;;;;5015876;28;20080;-84
2021/11/05 09:23:50;;;;;;;6.05;3.40;;;7.70;99.90;;;;;;5033544;28;20049;-84
2021/11/05 09:26:17;;;;;;;4.05;3.13;;;7.80;99.90;;;;;;5014595;28;20042;-84
2021/11/05 09:28:44;;;;;;;3.45;3.25;;;8.00;99.90;;;;;;5032266;28;20049;-84
2021/11/05 09:31:11;;;;;;;3.13;2.92;;;8.20;99.90;;;;;;5029810;28;20064;-84
2021/11/05 09:33:38;;;;;;;2.67;2.47;;;8.30;99.90;;;;;;5032743;28;20132;-84
2021/11/05 09:36:05;;;;;;;6.50;3.20;;;8.40;99.90;;;;;;5032153;28;20049;-84
2021/11/05 09:38:32;;;;;;;3.13;2.58;;;8.40;99.90;;;;;;5014450;28;20458;-85
2021/11/05 09:40:59;;;;;;;2.50;2.40;;;8.50;99.90;;;;;;5032694;28;20487;-84
2021/11/05 09:43:26;;;;;;;3.80;3.50;;;8.50;99.90;;;;;;5032716;28;20042;-84
2021/11/05 09:45:53;;;;;;;9.63;7.72;;;8.50;99.90;;;;;;5015100;28;20045;-84
2021/11/05 09:48:21;;;;;;;13.50;7.72;;;8.60;99.90;;;;;;5015225;28;20145;-84
2021/11/05 09:50:48;;;;;;;5.53;5.03;;;8.60;99.90;;;;;;5015353;28;20057;-85
2021/11/05 09:53:15;;;;;;;4.30;3.97;;;8.60;99.90;;;;;;5014970;28;20049;-84
2021/11/05 09:55:46;;;;;;;4.78;3.40;;;8.60;99.90;;;;;;5027788;28;20052;-84
2021/11/05 09:58:14;;;;;;;3.38;3.03;;;8.50;99.90;;;;;;5033010;28;20084;-84
2021/11/05 10:00:41;;;;;;;3.03;2.67;;;8.50;99.90;;;;;;5032817;28;20048;-84
2021/11/05 10:03:08;;;;;;;3.45;3.15;;;8.50;99.90;;;;;;5015135;28;20081;-84
2021/11/05 10:05:35;;;;;;;3.20;2.95;;;8.50;99.90;;;;;;5014985;28;20395;-84
2021/11/05 10:08:03;;;;;;;3.28;3.08;;;8.50;99.90;;;;;;5014886;28;20053;-84
2021/11/05 10:10:33;;;;;;;3.00;2.83;;;8.40;99.90;;;;;;5032451;28;20064;-84
2021/11/05 10:13:06;;;;;;;3.70;3.40;;;8.50;99.90;;;;;;5015088;28;20425;-84
2021/11/05 10:15:43;;;;;;;2.75;2.65;;;8.60;99.90;;;;;;5032468;28;20455;-84
2021/11/05 10:18:15;;;;;;;2.90;2.70;;;8.70;99.90;;;;;;5014618;28;20565;-84
2021/11/05 10:20:44;;;;;;;4.00;2.70;;;8.70;99.90;;;;;;5015038;28;20056;-83
2021/11/05 10:23:12;;;;;;;2.63;2.42;;;8.80;99.90;;;;;;5014901;28;20055;-84
2021/11/05 10:25:46;;;;;;;3.00;2.80;;;8.70;99.90;;;;;;5030906;28;20053;-84
2021/11/05 10:28:27;;;;;;;2.83;2.67;;;8.80;99.90;;;;;;5014638;28;20059;-84
2021/11/05 10:31:07;;;;;;;2.78;2.58;;;8.80;99.90;;;;;;5013922;28;20080;-84
2021/11/05 10:33:43;;;;;;;4.18;2.88;;;8.80;99.90;;;;;;5012018;28;20482;-84
2021/11/05 10:36:17;;;;;;;2.88;2.67;;;8.70;99.90;;;;;;5013743;28;20049;-84
2021/11/05 10:38:48;;;;;;;5.28;3.28;;;8.60;99.90;;;;;;5014556;28;20052;-84
2021/11/05 10:41:20;;;;;;;6.70;5.00;;;8.60;99.90;;;;;;5013631;28;20136;-84
2021/11/05 10:43:55;;;;;;;4.50;4.10;;;8.50;99.90;;;;;;5035804;28;20045;-84
2021/11/05 10:46:30;;;;;;;4.78;4.00;;;8.40;99.90;;;;;;5018680;28;20064;-84
2021/11/05 10:49:00;;;;;;;5.53;4.13;;;8.40;99.90;;;;;;5036411;28;20049;-84
2021/11/05 10:51:28;;;;;;;5.47;3.65;;;8.40;99.90;;;;;;5036439;28;20136;-84
2021/11/05 10:53:56;;;;;;;4.38;3.55;;;8.40;99.90;;;;;;5036137;28;20059;-83
2021/11/05 10:56:26;;;;;;;7.53;3.63;;;8.30;99.90;;;;;;5018195;28;20057;-84
2021/11/05 10:59:10;;;;;;;4.82;3.83;;;8.30;99.90;;;;;;5036094;28;20410;-84
2021/11/05 11:01:42;;;;;;;4.18;3.88;;;8.30;99.90;;;;;;5018602;28;20053;-84
2021/11/05 11:04:11;;;;;;;3.70;3.28;;;8.30;99.90;;;;;;5018209;28;20049;-84
2021/11/05 11:06:41;;;;;;;3.10;2.90;;;8.30;99.90;;;;;;5035828;28;20053;-84
2021/11/05 11:09:13;;;;;;;4.18;3.50;;;8.30;99.90;;;;;;5017725;28;20053;-84
2021/11/05 11:11:42;;;;;;;3.27;3.07;;;8.30;99.90;;;;;;5019861;28;20132;-85
2021/11/05 11:14:23;;;;;;;4.03;3.22;;;8.30;99.90;;;;;;5048280;28;20471;-84
2021/11/05 11:16:56;;;;;;;4.10;2.67;;;8.20;99.90;;;;;;5018102;28;20049;-85
2021/11/05 11:19:33;;;;;;;2.97;2.78;;;8.10;99.90;;;;;;5017956;28;20489;-84
2021/11/05 11:22:01;;;;;;;2.90;2.70;;;8.10;99.90;;;;;;5018040;28;20133;-84
2021/11/05 11:24:31;;;;;;;2.95;2.75;;;8.10;99.90;;;;;;5017917;28;20042;-84
2021/11/05 11:27:00;;;;;;;3.05;2.60;;;8.10;99.90;;;;;;5017629;28;20045;-84
2021/11/05 11:29:32;;;;;;;2.60;2.50;;;8.20;99.90;;;;;;5018770;28;20104;-84
2021/11/05 11:32:00;;;;;;;3.47;3.20;;;8.30;99.90;;;;;;5017302;28;20052;-84
2021/11/05 11:34:27;;;;;;;3.30;2.95;;;8.40;99.90;;;;;;5035219;28;20053;-84
2021/11/05 11:37:02;;;;;;;2.90;2.78;;;8.40;99.90;;;;;;5035472;28;20041;-84
2021/11/05 11:39:31;;;;;;;4.72;3.50;;;8.50;99.90;;;;;;5017603;28;20049;-84
2021/11/05 11:42:04;;;;;;;5.28;4.38;;;8.60;99.90;;;;;;5017705;28;20072;-84
2021/11/05 11:44:35;;;;;;;7.40;5.15;;;8.60;99.90;;;;;;5016941;28;20431;-84
2021/11/05 11:47:06;;;;;;;6.07;4.15;;;8.70;99.90;;;;;;5017753;28;20049;-84
2021/11/05 11:49:37;;;;;;;7.55;5.38;;;8.80;99.90;;;;;;5017730;28;20046;-84
2021/11/05 11:52:24;;;;;;;3.63;3.33;;;8.60;99.90;;;;;;5017394;28;20071;-84
2021/11/05 11:54:58;;;;;;;5.55;2.92;;;8.60;99.90;;;;;;5004200;28;20053;-84
2021/11/05 11:57:27;;;;;;;3.33;3.05;;;8.40;99.90;;;;;;5017554;28;20332;-84
2021/11/05 12:00:22;;;;;;;3.72;3.40;;;8.60;99.90;;;;;;5017452;28;20049;-84
2021/11/05 12:03:00;;;;;;;3.55;2.72;;;8.90;99.90;;;;;;5034929;28;20091;-84
2021/11/05 12:05:32;;;;;;;3.97;3.38;;;9.00;99.90;;;;;;5017146;28;20046;-84
2021/11/05 12:08:19;;;;;;;3.95;3.33;;;9.00;99.90;;;;;;5017611;28;20092;-84
2021/11/05 12:11:09;;;;;;;3.50;3.30;;;8.80;99.90;;;;;;5034889;28;20099;-84
2021/11/05 12:13:36;;;;;;;5.55;5.10;;;8.90;99.90;;;;;;5004606;28;20425;-84
2021/11/05 12:16:09;;;;;;;3.50;3.25;;;8.90;99.90;;;;;;5016542;28;20132;-84
2021/11/05 12:18:54;;;;;;;2.63;2.23;;;9.00;99.90;;;;;;5034694;28;20084;-85
2021/11/05 12:21:23;;;;;;;2.65;2.50;;;9.10;99.90;;;;;;5017074;28;20292;-85
2021/11/05 12:26:51;;;;;;;2.20;2.10;;;9.00;99.90;;;;;;5034769;28;20049;-84
2021/11/05 12:29:34;;;;;;;2.05;1.95;;;9.00;99.90;;;;;;5040391;28;20129;-85
2021/11/05 12:32:19;;;;;;;2.42;2.20;;;9.30;99.90;;;;;;5038776;28;20056;-85
2021/11/05 12:34:48;;;;;;;2.47;2.38;;;9.20;99.90;;;;;;5016775;28;20052;-84
2021/11/05 12:37:40;;;;;;;2.65;2.45;;;8.90;99.90;;;;;;5016183;28;20477;-85
2021/11/05 12:40:34;;;;;;;2.20;2.00;;;8.80;99.90;;;;;;5034286;28;20506;-85
2021/11/05 12:43:25;;;;;;;2.05;1.95;;;9.00;99.90;;;;;;5034215;28;20414;-84
2021/11/05 12:45:54;;;;;;;2.85;2.47;;;9.10;99.90;;;;;;5034134;28;20500;-85
2021/11/05 12:48:38;;;;;;;3.22;3.03;;;9.20;99.90;;;;;;5017239;28;20143;-85
2021/11/05 12:51:09;;;;;;;2.50;2.28;;;9.30;99.90;;;;;;5033752;28;20508;-85
2021/11/05 12:53:40;;;;;;;1.83;1.73;;;9.40;99.90;;;;;;5034242;28;20059;-85
2021/11/05 12:56:07;;;;;;;2.10;1.73;;;9.30;99.90;;;;;;5016221;28;20386;-84
2021/11/05 12:58:35;;;;;;;3.33;1.88;;;9.20;99.90;;;;;;5016334;28;20490;-85
2021/11/05 13:01:05;;;;;;;3.17;2.10;;;9.30;99.90;;;;;;5016646;28;20049;-84
2021/11/05 13:03:33;;;;;;;2.65;2.13;;;9.40;99.90;;;;;;5016384;28;20053;-84
2021/11/05 13:06:01;;;;;;;2.55;2.20;;;9.60;99.90;;;;;;5015684;28;20087;-85